»·PEaware :: N232KW KSBD-KEMT

N232KW :: KSBD-KEMT

FLIGHT INFORMATION

Flight Status: Arrived
Operator: Privately registered:
United States
More flights under this callsign
Pilot: Sally S. (18014)
Aircraft: CESSNA 172 SKYHAWK
(C172)
More flights by this aircraft type
Origin: KSBD San Bernardino Intl
United States
Destination: KEMT El Monte
United States
More flights between these airports :: More routes between these airports
Route: KSBD KEMT
File this flight plan on PilotEdge
Remarks: cat 7 rating try
Altitude:
(Current/Filed)
3,000ft
Speed:
(Current/Filed)
110kts
Departed: 04-Feb-18 11:51 AM
Arrived: 04-Feb-18 12:17 PM
Distance/Time
Traveled:
40nm/0:25
Distance/Time
To Go:
Arrived

Flight Plot

Page will automatically refresh every two minutes.

Flight plan parsing failed; only flown route is shown


Map Options




Map Legend


Flown Route
Filed Route
Departure Airport
Arrival Airport
Navaid (VOR, NDB)
Fix

Horizontal Profiles

Position Reports

Time Latitude Longitude Heading Altitude Ground
Speed
04-Feb-18 11:27 34.104717 -117.245514 325 1161ft 0kts
04-Feb-18 11:28 34.104717 -117.245514 325 1161ft 0kts
04-Feb-18 11:29 34.104717 -117.245514 325 1161ft 0kts
04-Feb-18 11:30 34.104717 -117.245514 325 1161ft 0kts
04-Feb-18 11:31 34.104717 -117.245514 325 1161ft 0kts
04-Feb-18 11:32 34.104717 -117.245514 325 1161ft 0kts
04-Feb-18 11:33 34.104717 -117.245514 325 1161ft 0kts
04-Feb-18 11:34 34.104717 -117.245514 325 1161ft 0kts
04-Feb-18 11:35 34.104717 -117.245514 325 1161ft 0kts
04-Feb-18 11:36 34.104717 -117.245514 325 1161ft 0kts
04-Feb-18 11:37 34.104717 -117.245514 325 1161ft 0kts
04-Feb-18 11:38 34.104717 -117.245514 325 1161ft 0kts
04-Feb-18 11:39 34.104717 -117.245514 325 1161ft 0kts
04-Feb-18 11:40 34.104717 -117.245514 325 1161ft 0kts
04-Feb-18 11:41 34.104717 -117.245514 325 1161ft 0kts
04-Feb-18 11:42 34.104717 -117.245514 325 1161ft 0kts
04-Feb-18 11:42 34.104717 -117.245514 325 1161ft 0kts
04-Feb-18 11:44 34.104717 -117.245514 325 1161ft 0kts
04-Feb-18 11:45 34.104717 -117.245514 325 1161ft 0kts
04-Feb-18 11:46 34.104717 -117.245514 325 1161ft 0kts
04-Feb-18 11:46 34.104717 -117.245514 324 1161ft 0kts
04-Feb-18 11:48 34.104471 -117.245458 153 1161ft 8kts
04-Feb-18 11:48 34.103347 -117.244203 107 1161ft 12kts
04-Feb-18 11:49 34.102493 -117.240675 144 1161ft 10kts
04-Feb-18 11:50 34.097932 -117.237882 207 1161ft 22kts
04-Feb-18 11:51 34.094395 -117.244126 249 1161ft 22kts
04-Feb-18 11:52 34.092611 -117.250184 249 1161ft 14kts
04-Feb-18 11:53 34.091608 -117.250727 156 1161ft 0kts
04-Feb-18 11:54 34.091607 -117.250727 156 1161ft 0kts
04-Feb-18 11:55 34.091607 -117.250727 156 1161ft 0kts
04-Feb-18 11:56 34.090817 -117.249911 76 1161ft 13kts
04-Feb-18 11:57 34.096862 -117.230466 69 1563ft 84kts
04-Feb-18 11:58 34.090468 -117.233221 295 2313ft 84kts
04-Feb-18 11:59 34.098957 -117.264230 280 2480ft 104kts
04-Feb-18 12:00 34.101727 -117.296917 272 2482ft 100kts
04-Feb-18 12:01 34.102263 -117.331744 270 2481ft 106kts
04-Feb-18 12:02 34.101934 -117.367871 269 2481ft 109kts
04-Feb-18 12:03 34.101244 -117.404718 268 2689ft 109kts
04-Feb-18 12:04 34.100454 -117.439344 268 3206ft 104kts
04-Feb-18 12:05 34.099742 -117.476406 269 3222ft 103kts
04-Feb-18 12:06 34.099019 -117.509065 269 3221ft 95kts
04-Feb-18 12:07 34.098293 -117.540624 269 3220ft 93kts
04-Feb-18 12:08 34.097568 -117.571935 269 3219ft 93kts
04-Feb-18 12:09 34.096841 -117.603145 269 3218ft 93kts
04-Feb-18 12:10 34.096105 -117.634389 269 3218ft 94kts
04-Feb-18 12:11 34.095356 -117.665904 268 3218ft 94kts
04-Feb-18 12:12 34.094590 -117.697793 268 3210ft 96kts
04-Feb-18 12:13 34.093795 -117.730249 268 3215ft 101kts
04-Feb-18 12:14 34.092916 -117.766495 267 3218ft 112kts
04-Feb-18 12:15 34.091999 -117.803929 267 3222ft 110kts
04-Feb-18 12:16 34.091111 -117.839629 265 3226ft 101kts
04-Feb-18 12:17 34.090236 -117.873013 266 3222ft 99kts
04-Feb-18 12:18 34.089367 -117.907918 267 2538ft 106kts
04-Feb-18 12:19 34.088434 -117.944081 268 1676ft 111kts
04-Feb-18 12:20 34.087504 -117.979128 268 1205ft 90kts
04-Feb-18 12:21 34.091321 -118.007829 335 1160ft 89kts
04-Feb-18 12:22 34.099532 -118.026957 215 703ft 83kts
04-Feb-18 12:23 34.083867 -118.036069 206 299ft 23kts
04-Feb-18 12:24 34.084199 -118.035216 25 299ft 14kts
04-Feb-18 12:25 34.084315 -118.034386 30 299ft 0kts
04-Feb-18 12:26 34.084315 -118.034386 30 299ft 0kts
04-Feb-18 12:27 34.084315 -118.034386 30 299ft 0kts
04-Feb-18 12:28 34.084315 -118.034386 30 299ft 0kts
04-Feb-18 12:29 34.084315 -118.034386 30 299ft 0kts
04-Feb-18 12:30 34.084315 -118.034386 30 299ft 0kts
04-Feb-18 12:31 34.084315 -118.034386 30 299ft 0kts
04-Feb-18 12:32 34.084315 -118.034386 30 299ft 0kts
04-Feb-18 12:33 34.084315 -118.034386 30 299ft 0kts
04-Feb-18 12:34 34.084315 -118.034386 30 299ft 0kts
04-Feb-18 12:35 34.084315 -118.034386 30 299ft 0kts
04-Feb-18 12:36 34.084315 -118.034386 30 299ft 0kts
04-Feb-18 12:37 34.084315 -118.034386 30 299ft 0kts

Navigation Log

Ident Type
Flight plan parsing failed, navigation log unavailable